createdAt,value
2022-12-28T00:01:48.044Z,100895.94
2022-12-28T00:04:45.700Z,100890.84
2022-12-28T00:07:42.608Z,100929.38
2022-12-28T00:11:08.478Z,100926.09
2022-12-28T00:14:05.941Z,100916.69
2022-12-28T00:16:55.235Z,100900.81
2022-12-28T00:20:02.994Z,100869.88
2022-12-28T00:26:42.778Z,100914.38
2022-12-28T00:29:37.415Z,100917.22
2022-12-28T00:35:49.594Z,100920.06
2022-12-28T00:39:00.700Z,100887.41
2022-12-28T00:41:48.943Z,100892.66
2022-12-28T00:44:38.430Z,100897.97
2022-12-28T00:47:34.842Z,100905.97
2022-12-28T00:50:33.776Z,100908.22
2022-12-28T00:53:31.695Z,100860.44
2022-12-28T00:56:28.077Z,100892.56
2022-12-28T00:59:20.268Z,100839.50
2022-12-28T01:02:14.494Z,100877.75
2022-12-28T01:05:47.964Z,100876.19
2022-12-28T01:08:58.080Z,100855.38
2022-12-28T01:11:49.894Z,100896.78
2022-12-28T01:14:43.422Z,100894.28
2022-12-28T01:17:42.075Z,100899.47
2022-12-28T01:20:40.686Z,100898.28
2022-12-28T01:23:38.128Z,100893.94
2022-12-28T01:26:32.281Z,100895.13
2022-12-28T01:29:38.863Z,100889.34
2022-12-28T01:32:41.195Z,100883.28
2022-12-28T01:35:43.414Z,100889.63
2022-12-28T01:38:36.905Z,100880.50
2022-12-28T01:41:35.349Z,100889.56
2022-12-28T01:44:46.914Z,100865.47
2022-12-28T01:47:58.257Z,100870.41
2022-12-28T01:50:54.126Z,100760.25
2022-12-28T01:53:52.076Z,100855.06
2022-12-28T01:56:46.195Z,100836.25
2022-12-28T01:59:54.439Z,100811.84
2022-12-28T02:03:12.452Z,100816.88
2022-12-28T02:06:17.058Z,100828.75
2022-12-28T02:12:52.026Z,100816.56
2022-12-28T02:15:44.549Z,100808.91
2022-12-28T02:18:33.649Z,100820.66
2022-12-28T02:21:25.066Z,100826.63
2022-12-28T02:25:11.543Z,100817.38
2022-12-28T02:28:48.556Z,100785.88
2022-12-28T02:32:04.285Z,100819.75
2022-12-28T02:35:12.106Z,100835.59
2022-12-28T02:38:26.547Z,100761.94
2022-12-28T02:41:25.635Z,100790.03
2022-12-28T02:44:45.678Z,100797.13
2022-12-28T02:48:06.730Z,100782.78
2022-12-28T02:51:23.841Z,100789.00
2022-12-28T02:55:15.965Z,100773.38
2022-12-28T02:58:40.524Z,100785.59
2022-12-28T03:01:58.229Z,100783.16
2022-12-28T03:04:59.779Z,100782.31
2022-12-28T03:08:20.749Z,100779.03
2022-12-28T03:11:17.835Z,100776.69
2022-12-28T03:14:47.846Z,100747.19
2022-12-28T03:18:25.988Z,100770.94
2022-12-28T03:21:38.539Z,100768.34
2022-12-28T03:24:57.860Z,100772.22
2022-12-28T03:28:35.464Z,100767.03
2022-12-28T03:31:32.607Z,100751.41
2022-12-28T03:34:45.618Z,100701.81
2022-12-28T03:37:45.775Z,100717.59
2022-12-28T03:40:50.561Z,100736.41
2022-12-28T03:44:08.638Z,100714.56
2022-12-28T03:47:19.796Z,100717.75
2022-12-28T03:50:23.265Z,100713.88
2022-12-28T03:53:24.021Z,100720.78
2022-12-28T03:56:23.327Z,100657.22
2022-12-28T03:59:16.247Z,100674.50
2022-12-28T04:02:27.090Z,100705.41
2022-12-28T04:05:28.120Z,100689.56
2022-12-28T04:08:20.552Z,100681.47
2022-12-28T04:11:10.877Z,100683.34
2022-12-28T04:14:10.999Z,100665.53
2022-12-28T04:17:15.992Z,100690.28
2022-12-28T04:20:20.650Z,100679.34
2022-12-28T04:23:12.903Z,100662.81
2022-12-28T04:26:14.454Z,100681.47
2022-12-28T04:29:09.880Z,100676.53
2022-12-28T04:32:30.784Z,100649.81
2022-12-28T04:35:36.374Z,100663.53
2022-12-28T04:38:30.085Z,100653.44
2022-12-28T04:41:26.249Z,100645.56
2022-12-28T04:44:29.046Z,100643.47
2022-12-28T04:47:48.853Z,100561.69
2022-12-28T04:50:43.988Z,100635.00
2022-12-28T04:53:41.245Z,100626.69
2022-12-28T04:56:43.291Z,100617.78
2022-12-28T04:59:51.036Z,100571.69
2022-12-28T05:02:46.479Z,100619.53
2022-12-28T05:05:37.519Z,100589.13
2022-12-28T05:08:27.886Z,100620.69
2022-12-28T05:11:24.995Z,100621.16
2022-12-28T05:14:33.575Z,100609.88
2022-12-28T05:17:28.266Z,100599.56
2022-12-28T05:20:28.749Z,100599.78
2022-12-28T05:23:36.267Z,100597.91
2022-12-28T05:26:38.194Z,100602.69
2022-12-28T05:29:45.486Z,100592.81
2022-12-28T05:32:40.459Z,100590.94
2022-12-28T05:35:37.247Z,100596.91
2022-12-28T05:38:30.767Z,100594.69
2022-12-28T05:41:24.706Z,100584.94
2022-12-28T05:44:14.027Z,100558.78
2022-12-28T05:47:12.214Z,100574.28
2022-12-28T05:50:06.881Z,100569.13
2022-12-28T05:53:10.369Z,100568.31
2022-12-28T05:56:13.965Z,100560.44
2022-12-28T05:59:13.844Z,100566.09
2022-12-28T06:02:06.675Z,100539.09
2022-12-28T06:05:07.506Z,100546.81
2022-12-28T06:08:08.078Z,100541.91
2022-12-28T06:11:14.990Z,100544.47
2022-12-28T06:14:09.901Z,100540.47
2022-12-28T06:17:10.820Z,100529.81
2022-12-28T06:19:57.615Z,100466.63
2022-12-28T06:22:59.267Z,100539.75
2022-12-28T06:25:52.074Z,100524.84
2022-12-28T06:28:42.655Z,100510.31
2022-12-28T06:31:40.964Z,100527.31
2022-12-28T06:34:37.459Z,100504.00
2022-12-28T06:37:26.664Z,100524.03
2022-12-28T06:40:33.386Z,100502.34
2022-12-28T06:43:44.527Z,100494.97
2022-12-28T06:46:39.871Z,100517.59
2022-12-28T06:49:38.257Z,100501.78
2022-12-28T06:52:44.778Z,100479.50
2022-12-28T06:55:37.887Z,100510.56
2022-12-28T06:58:43.049Z,100510.31
2022-12-28T07:01:57.351Z,100497.28
2022-12-28T07:04:47.189Z,100503.03
2022-12-28T07:10:50.520Z,100476.44
2022-12-28T07:13:42.650Z,100470.47
2022-12-28T07:17:00.608Z,100487.78
2022-12-28T07:19:58.844Z,100505.84
2022-12-28T07:23:24.560Z,100498.31
2022-12-28T07:26:19.143Z,100432.47
2022-12-28T07:29:27.995Z,100414.06
2022-12-28T07:32:29.359Z,100420.50
2022-12-28T07:35:31.015Z,100465.47
2022-12-28T07:38:41.035Z,100479.50
2022-12-28T07:41:40.189Z,100466.25
2022-12-28T07:44:49.082Z,100463.88
2022-12-28T07:48:04.950Z,100473.97
2022-12-28T07:51:38.150Z,100412.41
2022-12-28T07:54:42.344Z,100439.06
2022-12-28T07:57:51.268Z,100453.34
2022-12-28T08:00:48.753Z,100431.72
2022-12-28T08:04:48.844Z,100430.09
2022-12-28T08:08:44.696Z,100454.28
2022-12-28T08:11:42.461Z,100449.38
2022-12-28T08:18:30.134Z,100451.56
2022-12-28T08:24:59.181Z,100457.16
2022-12-28T08:28:00.409Z,100455.31
2022-12-28T08:30:59.095Z,100447.28
2022-12-28T08:33:58.209Z,100438.94
2022-12-28T08:36:54.925Z,100341.34
2022-12-28T08:39:54.779Z,100442.63
2022-12-28T08:42:55.179Z,100358.47
2022-12-28T08:46:09.469Z,100438.75
2022-12-28T08:48:59.692Z,100416.81
2022-12-28T08:51:59.437Z,100419.16
2022-12-28T08:55:10.895Z,100422.16
2022-12-28T08:58:04.140Z,100421.19
2022-12-28T09:01:03.720Z,100419.06
2022-12-28T09:03:57.458Z,100410.66
2022-12-28T09:06:49.325Z,100377.38
2022-12-28T09:09:51.556Z,100399.22
2022-12-28T09:13:15.791Z,100412.63
2022-12-28T09:17:25.462Z,100409.66
2022-12-28T09:20:48.015Z,100401.31
2022-12-28T09:30:24.672Z,100383.56
2022-12-28T09:34:41.424Z,100373.81
2022-12-28T09:37:57.501Z,100381.19
2022-12-28T09:40:47.089Z,100358.63
2022-12-28T09:44:04.416Z,100360.94
2022-12-28T09:47:28.381Z,100350.50
2022-12-28T09:54:12.997Z,100332.44
2022-12-28T09:57:05.108Z,100308.69
2022-12-28T10:00:03.322Z,100312.31
2022-12-28T10:03:03.750Z,100250.56
2022-12-28T10:05:58.265Z,100298.63
2022-12-28T10:09:11.390Z,100293.53
2022-12-28T10:12:09.835Z,100248.16
2022-12-28T10:15:07.317Z,100276.56
2022-12-28T10:18:13.693Z,100275.81
2022-12-28T10:21:41.463Z,100277.50
2022-12-28T10:24:37.330Z,100273.44
2022-12-28T10:27:36.637Z,100259.06
2022-12-28T10:30:33.835Z,100271.06
2022-12-28T10:33:32.371Z,100208.50
2022-12-28T10:36:47.304Z,100255.13
2022-12-28T10:43:20.938Z,100201.34
2022-12-28T10:46:58.157Z,100240.28
2022-12-28T11:00:30.279Z,100225.16
2022-12-28T11:03:24.324Z,100237.63
2022-12-28T11:18:23.001Z,100205.06
2022-12-28T11:22:03.855Z,100207.50
2022-12-28T11:25:06.861Z,100184.16
2022-12-28T11:28:51.168Z,100175.47
2022-12-28T11:32:03.708Z,100156.78
2022-12-28T11:35:16.919Z,100138.03
2022-12-28T11:39:47.833Z,100157.59
2022-12-28T11:43:37.962Z,100144.00
2022-12-28T11:46:38.003Z,100150.53
2022-12-28T11:50:43.553Z,100138.56
2022-12-28T11:53:47.297Z,100128.56
2022-12-28T11:56:52.383Z,100128.00
2022-12-28T12:00:22.303Z,100103.03
2022-12-28T12:04:25.619Z,100132.34
2022-12-28T12:08:20.159Z,100113.63
2022-12-28T12:12:36.349Z,100122.84
2022-12-28T12:15:44.272Z,100063.94
2022-12-28T12:18:57.329Z,100041.41
2022-12-28T12:27:27.262Z,100005.84
2022-12-28T12:30:20.899Z,100096.44
2022-12-28T12:33:14.220Z,100094.25
2022-12-28T12:36:27.027Z,100019.69
2022-12-28T12:39:43.274Z,100092.88
2022-12-28T12:42:41.676Z,100059.50
2022-12-28T12:45:36.434Z,100070.06
2022-12-28T12:48:31.421Z,100071.16
2022-12-28T12:51:42.374Z,100053.00
2022-12-28T12:54:49.822Z,100025.63
2022-12-28T12:57:53.900Z,100051.91
2022-12-28T13:00:48.388Z,100075.50
2022-12-28T13:03:39.609Z,100067.66
2022-12-28T13:06:25.985Z,100066.81
2022-12-28T13:09:19.951Z,99948.06
2022-12-28T13:12:39.868Z,99941.00
2022-12-28T13:15:26.501Z,99977.88
2022-12-28T13:21:43.775Z,99947.50
2022-12-28T13:24:34.667Z,100031.25
2022-12-28T13:27:21.261Z,99992.75
2022-12-28T13:30:17.710Z,99963.22
2022-12-28T13:33:03.999Z,99939.38
2022-12-28T13:36:06.805Z,100026.63
2022-12-28T13:39:22.899Z,99946.69
2022-12-28T13:42:17.384Z,99936.38
2022-12-28T13:45:04.998Z,99891.66
2022-12-28T13:47:52.502Z,99957.50
2022-12-28T13:50:42.584Z,99932.03
2022-12-28T13:53:31.117Z,99962.41
2022-12-28T13:56:18.549Z,99957.22
2022-12-28T13:59:10.540Z,99952.09
2022-12-28T14:01:58.888Z,100012.22
2022-12-28T14:04:54.165Z,100012.75
2022-12-28T14:07:40.924Z,99922.22
2022-12-28T14:10:28.351Z,99948.53
2022-12-28T14:13:15.629Z,99934.44
2022-12-28T14:16:02.900Z,99925.72
2022-12-28T14:18:50.199Z,99891.06
2022-12-28T14:21:43.065Z,99908.41
2022-12-28T14:24:29.673Z,99885.66
2022-12-28T14:27:17.165Z,99996.97
2022-12-28T14:30:06.944Z,99986.88
2022-12-28T14:32:54.315Z,99875.81
2022-12-28T14:35:51.053Z,99937.59
2022-12-28T14:38:47.919Z,99924.31
2022-12-28T14:41:39.100Z,99937.81
2022-12-28T14:44:39.250Z,99934.09
2022-12-28T14:47:37.398Z,99983.94
2022-12-28T14:50:29.156Z,99989.34
2022-12-28T14:53:18.545Z,99980.09
2022-12-28T14:59:34.204Z,99933.81
2022-12-28T15:00:26.583Z,99897.50
2022-12-28T15:02:36.216Z,100007.50
2022-12-28T15:05:46.205Z,99876.69
2022-12-28T15:08:35.058Z,99948.16
2022-12-28T15:11:28.523Z,99951.66
2022-12-28T15:14:20.735Z,99930.53
2022-12-28T15:17:11.337Z,99922.91
2022-12-28T15:20:01.761Z,99883.94
2022-12-28T15:22:50.613Z,99890.16
2022-12-28T15:25:38.467Z,99926.19
2022-12-28T15:28:25.106Z,99898.31
2022-12-28T15:31:14.429Z,99889.34
2022-12-28T15:34:21.163Z,99958.41
2022-12-28T15:37:10.728Z,99892.84
2022-12-28T15:39:59.671Z,99956.50
2022-12-28T15:42:46.856Z,99947.81
2022-12-28T15:45:33.028Z,99928.59
2022-12-28T15:48:26.891Z,99887.19
2022-12-28T15:51:13.174Z,99949.19
2022-12-28T15:54:02.551Z,99906.69
2022-12-28T15:57:01.188Z,99885.31
2022-12-28T15:59:53.584Z,99940.50
2022-12-28T16:02:42.016Z,99912.16
2022-12-28T16:05:29.488Z,100008.00
2022-12-28T16:08:15.180Z,99963.03
2022-12-28T16:11:15.945Z,99896.16
2022-12-28T16:14:17.988Z,99945.44
2022-12-28T16:17:04.457Z,99902.72
2022-12-28T16:19:53.182Z,99960.94
2022-12-28T16:22:40.001Z,99952.28
2022-12-28T16:25:27.124Z,99912.44
2022-12-28T16:28:14.156Z,99957.16
2022-12-28T16:31:05.564Z,99934.66
2022-12-28T16:33:57.942Z,99993.97
2022-12-28T16:36:47.144Z,99890.25
2022-12-28T16:39:38.237Z,99951.97
2022-12-28T16:42:28.391Z,99934.41
2022-12-28T16:45:17.454Z,99918.94
2022-12-28T16:48:04.484Z,99882.91
2022-12-28T16:51:00.584Z,99886.47
2022-12-28T16:53:53.803Z,99980.16
2022-12-28T16:56:42.828Z,99875.66
2022-12-28T16:59:29.534Z,99999.72
2022-12-28T17:05:25.598Z,99861.28
2022-12-28T17:08:18.015Z,99953.44
2022-12-28T17:11:09.478Z,99935.00
2022-12-28T17:14:06.328Z,99967.22
2022-12-28T17:16:52.424Z,100001.13
2022-12-28T17:19:41.564Z,99938.00
2022-12-28T17:22:27.866Z,99883.81
2022-12-28T17:25:14.892Z,99924.47
2022-12-28T17:28:01.347Z,99954.25
2022-12-28T17:30:47.719Z,99906.00
2022-12-28T17:33:38.938Z,99943.66
2022-12-28T17:36:27.081Z,99977.78
2022-12-28T17:39:19.636Z,99898.97
2022-12-28T17:42:07.381Z,99969.66
2022-12-28T17:44:55.753Z,99938.50
2022-12-28T17:47:48.889Z,99881.34
2022-12-28T17:50:47.049Z,99902.72
2022-12-28T17:53:42.855Z,99922.50
2022-12-28T17:56:40.825Z,99916.53
2022-12-28T17:59:31.286Z,99873.22
2022-12-28T18:02:18.608Z,99914.63
2022-12-28T18:05:10.974Z,99897.56
2022-12-28T18:08:02.019Z,99871.56
2022-12-28T18:10:52.252Z,99888.88
2022-12-28T18:13:43.092Z,99866.13
2022-12-28T18:16:29.588Z,99913.25
2022-12-28T18:19:21.033Z,99864.78
2022-12-28T18:22:09.632Z,99892.66
2022-12-28T18:25:16.220Z,99984.72
2022-12-28T18:28:09.875Z,99859.88
2022-12-28T18:31:01.463Z,99876.13
2022-12-28T18:33:58.946Z,99938.69
2022-12-28T18:36:47.545Z,99918.66
2022-12-28T18:39:34.815Z,99933.28
2022-12-28T18:42:21.119Z,99891.81
2022-12-28T18:45:08.655Z,99989.03
2022-12-28T18:47:55.297Z,99925.38
2022-12-28T18:51:02.318Z,99920.22
2022-12-28T18:53:51.034Z,99888.50
2022-12-28T18:56:37.994Z,99930.22
2022-12-28T18:59:24.769Z,99976.50
2022-12-28T19:02:19.333Z,99856.81
2022-12-28T19:05:06.831Z,99961.06
2022-12-28T19:07:54.338Z,99878.19
2022-12-28T19:10:42.900Z,99966.16
2022-12-28T19:13:32.888Z,99861.91
2022-12-28T19:16:30.961Z,99897.13
2022-12-28T19:19:21.335Z,99959.09
2022-12-28T19:22:07.758Z,99893.28
2022-12-28T19:24:57.646Z,99839.72
2022-12-28T19:27:47.989Z,99900.88
2022-12-28T19:30:36.370Z,99889.78
2022-12-28T19:33:24.998Z,99846.75
2022-12-28T19:36:20.140Z,99842.44
2022-12-28T19:39:09.444Z,99846.47
2022-12-28T19:42:03.327Z,99881.69
2022-12-28T19:44:49.480Z,99845.91
2022-12-28T19:47:41.946Z,99841.56
2022-12-28T19:50:28.150Z,99831.31
2022-12-28T19:53:14.989Z,99901.41
2022-12-28T19:56:06.265Z,99830.22
2022-12-28T19:58:57.820Z,99839.44
2022-12-28T20:01:47.307Z,99825.59
2022-12-28T20:04:34.567Z,99833.66
2022-12-28T20:07:20.676Z,99806.31
2022-12-28T20:10:08.499Z,99789.25
2022-12-28T20:12:55.500Z,99781.38
2022-12-28T20:15:44.486Z,99785.19
2022-12-28T20:18:30.748Z,99870.97
2022-12-28T20:21:19.744Z,99822.81
2022-12-28T20:24:08.131Z,99860.44
2022-12-28T20:27:01.545Z,99889.66
2022-12-28T20:29:48.435Z,99893.50
2022-12-28T20:32:39.679Z,99862.09
2022-12-28T20:35:30.352Z,99819.88
2022-12-28T20:38:16.888Z,99817.09
2022-12-28T20:41:09.441Z,99811.94
2022-12-28T20:43:56.279Z,99865.22
2022-12-28T20:46:43.639Z,99859.50
2022-12-28T20:49:31.924Z,99848.16
2022-12-28T20:52:17.874Z,99787.53
2022-12-28T20:55:08.667Z,99792.69
2022-12-28T20:57:54.609Z,99894.59
2022-12-28T21:00:43.111Z,99774.78
2022-12-28T21:03:31.015Z,99827.78
2022-12-28T21:06:18.174Z,99857.50
2022-12-28T21:09:04.409Z,99820.97
2022-12-28T21:11:50.789Z,99827.22
2022-12-28T21:14:37.035Z,99770.41
2022-12-28T21:17:24.893Z,99882.38
2022-12-28T21:20:13.928Z,99863.16
2022-12-28T21:23:02.172Z,99822.28
2022-12-28T21:25:49.395Z,99769.78
2022-12-28T21:28:35.876Z,99826.00
2022-12-28T21:31:31.836Z,99793.81
2022-12-28T21:34:20.924Z,99749.47
2022-12-28T21:37:25.311Z,99863.25
2022-12-28T21:40:14.323Z,99824.34
2022-12-28T21:43:05.167Z,99864.56
2022-12-28T21:46:02.547Z,99780.47
2022-12-28T21:48:53.266Z,99747.16
2022-12-28T21:51:42.583Z,99740.94
2022-12-28T21:54:29.157Z,99758.72
2022-12-28T21:57:26.318Z,99773.78
2022-12-28T22:00:36.192Z,99761.88
2022-12-28T22:03:42.006Z,99774.06
2022-12-28T22:06:30.897Z,99730.75
2022-12-28T22:09:35.747Z,99722.41
2022-12-28T22:12:34.858Z,99762.94
2022-12-28T22:15:44.365Z,99723.97
2022-12-28T22:19:00.976Z,99726.69
2022-12-28T22:21:37.940Z,99699.09
2022-12-28T22:24:24.476Z,99809.31
2022-12-28T22:27:19.642Z,99741.44
2022-12-28T22:30:10.777Z,99704.69
2022-12-28T22:33:01.473Z,99732.97
2022-12-28T22:35:48.659Z,99708.47
2022-12-28T22:38:36.723Z,99745.72
2022-12-28T22:41:23.146Z,99768.16
2022-12-28T22:44:10.042Z,99741.38
2022-12-28T22:47:01.366Z,99745.72
2022-12-28T22:49:47.959Z,99819.03
2022-12-28T22:52:34.403Z,99737.63
2022-12-28T22:55:21.242Z,99720.41
2022-12-28T22:58:10.572Z,99705.84
2022-12-28T23:01:27.699Z,99750.97
2022-12-28T23:04:14.768Z,99767.16
2022-12-28T23:07:04.108Z,99693.94
2022-12-28T23:09:50.394Z,99750.66
2022-12-28T23:12:36.618Z,99726.59
2022-12-28T23:15:25.160Z,99723.88
2022-12-28T23:18:30.670Z,99718.75
2022-12-28T23:21:41.485Z,99701.69
2022-12-28T23:24:47.013Z,99712.50
2022-12-28T23:27:38.920Z,99778.97
2022-12-28T23:30:25.981Z,99708.97
2022-12-28T23:33:12.211Z,99701.69
2022-12-28T23:36:02.667Z,99710.78
2022-12-28T23:38:49.627Z,99716.50
2022-12-28T23:41:48.768Z,99634.59
2022-12-28T23:44:34.739Z,99686.09
2022-12-28T23:47:21.398Z,99625.28
2022-12-28T23:50:08.459Z,99650.31
2022-12-28T23:52:55.361Z,99606.34
2022-12-28T23:55:42.466Z,99602.22
2022-12-28T23:58:29.168Z,99647.59
